Latest Coastal Weather Observations for Lord Howe Island

IDN60701

Issued at 2:35 pm EST Wednesday 16 April 2014 (issued every 10 minutes, with the page automatically refreshed every 10 minutes)

About coastal observations | Map of coastal stations | Coastal observations for NSW | Marine services | Other Formats
Station Details ID: 200839 Name: LORD HOWE ISLAND AERO Lat: -31.54 Lon: 159.08 Height: 5.0 m
Data from the previous 72 hours. | See also: Recent months at Lord Howe Island
Date/Time
EST
Temp

°C
Wind Pressure Rain
since 9am
mm
Weather Cloud Vis
km
Sea
Height
m
Swell
Dir
 
Speed
knots
Gust
knots
hPa Trend Height
m
Period
s
Dir
16/02:30pm 22.3 SW 12 21 1007.3 - 0.6 - Mostly clear 10 - - - -
16/02:00pm 22.6 SW 11 17 1007.4 - 0.6 - Partly cloudy 10 - - - -
16/01:30pm 22.1 SW 11 19 1007.6 - 0.6 - Mostly clear 10 - - - -
16/01:00pm 22.0 SW 11 18 1007.8 - 0.6 - Mostly clear 10 - - - -
16/12:30pm 22.9 SSW 12 19 1007.8 - 0.6 - Mostly clear 10 - - - -
16/12:00pm 21.8 SW 11 18 1008.1 - 0.6 - Mostly clear 10 - - - -
16/11:51am 22.4 SSW 10 16 1008.2 - 0.6 - Mostly clear 10 - - - -
16/11:30am 21.9 SSW 9 17 1008.6 S 0.6 Showers Mostly cloudy 5 - - - -
16/11:14am 21.1 SSW 12 21 1008.8 - 0.2 - Partly cloudy 6 - - - -
16/11:00am 22.6 SSW 10 18 1008.8 - 0.2 - Mostly clear 10 - - - -
16/10:30am 23.0 SSW 11 19 1009.0 - 0.2 - Partly cloudy 10 - - - -
16/10:00am 21.8 SSW 10 19 1009.2 - 0.2 - Mostly clear 10 - - - -
16/09:30am 21.9 SSW 10 18 1009.3 - 0.2 - Mostly clear 10 - - - -
16/09:00am 21.4 SSW 11 19 1009.5 - 0.2 - Partly cloudy 10 - - - -
16/08:30am 21.0 S 7 12 1009.7 F 1.0 Recent precip. Partly cloudy 25 - - - -
16/08:00am 21.2 SSW 11 19 1009.7 - 0.4 - Mostly clear 10 - - - -
16/07:30am 21.5 SSW 10 17 1009.5 - 0.4 - Mostly clear 10 - - - -
16/07:00am 20.4 SSW 8 22 1009.3 - 0.4 - Mostly clear 10 - - - -
16/06:30am 20.7 SSW 8 19 1009.2 - 0.4 - Mostly clear 10 - - - -
16/06:00am 19.9 SSW 8 17 1009.0 - 0.4 Showers Mostly clear 10 - - - -
16/05:30am 20.9 SSW 8 23 1008.9 F 0.0 Fine Mostly cloudy 30 - - - -
16/05:00am 20.6 S 8 16 1008.8 - 0.0 - Partly cloudy 10 - - - -
16/04:30am 20.7 SSE 6 13 1008.5 - 0.0 - Partly cloudy 10 - - - -
16/04:00am 21.0 WSW 8 14 1009.1 - 0.0 - Partly cloudy 10 - - - -
16/03:30am 20.9 SSW 13 17 1008.6 - 0.0 - Partly cloudy 10 - - - -
16/03:00am 20.6 S 7 14 1008.9 - 0.0 - Partly cloudy 10 - - - -
16/02:30am 20.7 S 8 15 1009.6 - 0.0 - Mostly clear 10 - - - -
16/02:00am 20.2 SSW 8 16 1010.1 - 0.0 - Partly cloudy 10 - - - -
16/01:30am 20.6 S 7 12 1010.4 - 0.0 - Partly cloudy 10 - - - -
16/01:00am 20.9 S 9 16 1010.9 - 0.0 - Partly cloudy 10 - - - -
16/12:30am 21.0 SSE 5 9 1011.3 - 0.0 - Partly cloudy 10 - - - -
16/12:00am 21.2 SSE 6 11 1011.7 - 0.0 - Partly cloudy 10 - - - -
 
Date/Time
EST
Temp

°C
Wind Pressure Rain
since 9am
mm
Weather Cloud Vis
km
Sea
Height
m
Swell
Dir
 
Speed
knots
Gust
knots
hPa Trend Height
m
Period
s
Dir
15/11:30pm 21.2 SSW 6 12 1012.3 - 0.0 - Cloudy 10 - - - -
15/11:00pm 21.2 S 5 9 1012.2 - 0.0 - Partly cloudy 10 - - - -
15/10:30pm 21.2 SW 8 16 1012.7 - 0.0 - Partly cloudy 10 - - - -
15/10:00pm 21.1 S 6 15 1012.7 - 0.0 - Partly cloudy 10 - - - -
15/09:30pm 21.0 SW 9 18 1013.3 - 0.0 - Partly cloudy 10 - - - -
15/09:00pm 21.4 SSW 6 11 1013.3 - 0.0 - Partly cloudy 10 - - - -
15/08:30pm 21.2 SSW 5 10 1013.3 - 0.0 - Partly cloudy 10 - - - -
15/08:00pm 21.4 SW 9 15 1012.9 - 0.0 - Partly cloudy 10 - - - -
15/07:30pm 21.1 SSW 7 13 1013.1 - 0.0 - Partly cloudy 10 - - - -
15/07:00pm 21.0 SSW 7 13 1013.0 - 0.0 - Partly cloudy 10 - - - -
15/06:30pm 21.2 SSW 7 13 1012.9 - 0.0 - Partly cloudy 10 - - - -
15/06:00pm 21.1 SSW 9 15 1012.8 - 0.0 - Partly cloudy 10 - - - -
15/05:30pm 21.0 SSW 7 17 1012.7 - 0.0 - Cloudy 10 - - - -
15/05:00pm 20.9 S 6 15 1012.5 - 0.0 - Partly cloudy 10 - - - -
15/04:30pm 21.2 SW 6 12 1012.4 - 0.0 - Partly cloudy 10 - - - -
15/04:00pm 21.9 SSW 6 13 1012.4 - 0.0 - - 10 - - - -
15/03:30pm 22.3 S 6 19 1012.5 - 0.0 - Partly cloudy 10 - - - -
15/03:00pm 22.6 SW 6 14 1012.5 - 0.0 - Partly cloudy 10 - - - -
15/02:30pm 22.3 SSW 8 15 1012.6 F 0.0 Fine Partly cloudy 30 - - - -
15/02:00pm 22.1 S 6 13 1012.8 - 0.0 - Mostly clear 10 - - - -
15/01:30pm 22.6 SSW 6 11 1012.9 - 0.0 - Mostly clear 10 - - - -
15/01:00pm 22.7 SSW 8 17 1013.0 - 0.0 - Mostly clear 10 - - - -
15/12:30pm 22.9 SSW 7 15 1013.3 - 0.0 - Mostly clear 10 - - - -
15/12:00pm 22.8 S 7 12 1013.9 - 0.0 - Mostly clear 10 - - - -
15/11:30am 22.2 SSW 7 13 1014.4 S 0.0 Fine Partly cloudy 30 - - - -
15/11:00am 22.2 SSW 7 14 1014.7 - 0.0 - Mostly clear 10 - - - -
15/10:30am 22.4 S 6 14 1015.2 - 0.0 - Mostly clear 10 - - - -
15/10:00am 22.1 SW 8 15 1015.4 - 0.0 - Mostly clear 10 - - - -
15/09:30am 22.4 SSW 7 13 1015.5 - 0.0 - Mostly clear 10 - - - -
15/09:00am 22.3 S 7 20 1015.7 - 0.0 - Mostly clear 10 - - - -
15/08:30am 22.2 SSW 8 14 1015.5 F 0.0 Fine Mostly cloudy 30 - - - -
15/08:00am 21.5 S 6 11 1015.4 - 0.0 - Partly cloudy 10 - - - -
15/07:30am 21.1 SSE 4 8 1015.4 - 0.0 - Partly cloudy 10 - - - -
15/07:00am 21.5 S 5 10 1015.4 - 0.0 - Mostly clear 10 - - - -
15/06:30am 21.1 S 6 11 1015.1 - 0.0 - Mostly clear 10 - - - -
15/06:00am 20.4 S 5 9 1015.0 - 0.0 - Mostly clear 10 - - - -
15/05:30am 19.7 SSE 3 8 1014.7 F 0.0 Fine Mostly clear 30 - - - -
15/05:00am 20.4 SSE 6 10 1014.5 - 0.0 - Partly cloudy 10 - - - -
15/04:30am 19.4 SE 4 7 1014.7 - 0.0 - Partly cloudy 10 - - - -
15/04:00am 20.5 SE 5 8 1014.7 - 0.0 - Partly cloudy 10 - - - -
15/03:30am 20.3 SSE 6 12 1014.7 - 0.0 - Partly cloudy 10 - - - -
15/03:00am 20.5 S 7 12 1014.7 - 0.0 - Cloudy 10 - - - -
15/02:30am 20.8 SSW 6 12 1014.9 - 0.0 - Partly cloudy 10 - - - -
15/02:00am 20.4 SSW 4 7 1014.8 - 0.0 - Partly cloudy 10 - - - -
15/01:30am 20.6 SSW 9 15 1015.1 - 0.0 - Partly cloudy 10 - - - -
15/01:00am 20.0 ESE 5 9 1015.3 - 0.0 - Partly cloudy 10 - - - -
15/12:30am 20.3 SSE 3 9 1015.3 - 0.0 - Partly cloudy 10 - - - -
15/12:00am 19.5 SE 3 5 1015.5 - 0.0 - Partly cloudy 10 - - - -
 
Date/Time
EST
Temp

°C
Wind Pressure Rain
since 9am
mm
Weather Cloud Vis
km
Sea
Height
m
Swell
Dir
 
Speed
knots
Gust
knots
hPa Trend Height
m
Period
s
Dir
14/11:30pm 20.6 SSE 4 8 1015.7 - 0.0 - - 10 - - - -
14/11:00pm 19.0 SSE 3 5 1015.8 - 0.0 - Partly cloudy 10 - - - -
14/10:30pm 20.9 SE 5 10 1015.8 - 0.0 - Partly cloudy 10 - - - -
14/10:00pm 20.4 ESE 5 7 1015.8 - 0.0 - Partly cloudy 10 - - - -
14/09:30pm 20.7 SE 6 9 1016.0 - 0.0 - Partly cloudy 10 - - - -
14/09:00pm 20.7 SSE 4 6 1015.9 - 0.0 - Partly cloudy 10 - - - -
14/08:30pm 20.9 S 6 11 1015.9 - 0.0 - - 10 - - - -
14/08:00pm 21.0 S 7 13 1015.8 - 0.0 - - 10 - - - -
14/07:30pm 20.8 S 5 9 1015.8 - 0.0 - - 10 - - - -
14/07:00pm 20.9 SSW 5 11 1015.4 - 0.0 - - 10 - - - -
14/06:30pm 21.4 S 6 11 1015.2 - 0.0 - - 10 - - - -
14/06:00pm 20.9 SSW 7 10 1014.8 - 0.0 - - 10 - - - -
14/05:30pm 20.8 S 5 10 1014.6 - 0.0 - - 10 - - - -
14/05:00pm 21.3 SSW 7 12 1014.4 - 0.0 - - 10 - - - -
14/04:30pm 21.8 SSW 8 13 1014.3 - 0.0 - - 10 - - - -
14/04:00pm 21.9 SSW 9 15 1014.1 - 0.0 - Partly cloudy 10 - - - -
14/03:30pm 22.6 SSW 8 13 1014.1 - 0.0 - - 10 - - - -
14/03:00pm 23.2 SW 8 13 1013.9 - 0.0 - Partly cloudy 10 - - - -
14/02:30pm 23.3 SW 7 11 1013.8 R 0.0 Fine Partly cloudy 30 - - - -
14/02:00pm 23.1 SW 8 11 1013.9 - 0.0 - Mostly clear 10 - - - -
14/01:30pm 23.6 SW 7 11 1013.8 - 0.0 - Mostly clear 10 - - - -
14/01:00pm 23.4 SW 9 13 1013.7 - 0.0 - Mostly clear 10 - - - -
14/12:30pm 23.5 SW 7 11 1013.7 - 0.0 - Mostly clear 10 - - - -
14/12:00pm 23.2 SW 9 13 1014.1 - 0.0 - Mostly clear 10 - - - -
14/11:30am 23.6 SW 8 12 1014.6 R 0.0 Fine Mostly clear 30 - - - -
14/11:00am 23.7 SW 7 10 1015.0 - 0.0 - Mostly clear 10 - - - -
14/10:30am 23.4 SW 8 11 1015.3 - 0.0 - Mostly clear 10 - - - -
14/10:00am 23.4 SW 8 13 1015.3 - 0.0 - Mostly clear 10 - - - -
14/09:30am 23.0 SSW 7 12 1015.3 - 0.0 - Mostly clear 10 - - - -
14/09:00am 22.8 SSW 9 13 1015.2 - 0.0 - Mostly clear 10 - - - -
14/08:30am 23.1 SSW 8 11 1015.0 R 0.2 Fine Partly cloudy 30 - - - -
14/08:00am 22.0 SSW 10 16 1014.9 - 0.2 - Mostly clear 10 - - - -
14/07:30am 21.3 SSW 9 14 1014.6 - 0.2 - Mostly clear 10 - - - -
14/07:00am 21.3 SSW 8 11 1014.3 - 0.2 - Mostly clear 10 - - - -
14/06:30am 21.3 SSW 7 14 1014.1 - 0.2 - Mostly clear 10 - - - -
14/06:00am 21.2 SSW 8 15 1013.9 - 0.2 - Mostly clear 10 - - - -
14/05:30am 21.1 SSW 9 14 1013.7 F 0.2 Fine Partly cloudy 30 - - - -
14/05:00am 21.0 SSW 7 13 1013.6 - 0.2 - Partly cloudy 10 - - - -
14/04:30am 21.1 SSW 6 8 1013.4 - 0.2 - Partly cloudy 10 - - - -
14/04:00am 21.3 SSW 9 15 1013.3 - 0.2 - Partly cloudy 10 - - - -
14/03:30am 21.5 SW 8 12 1013.2 - 0.2 - Partly cloudy 10 - - - -
14/03:00am 21.2 SSW 9 14 1013.1 - 0.2 - Partly cloudy 10 - - - -
14/02:30am 21.5 SSW 7 11 1013.2 - 0.2 - Mostly cloudy 10 - - - -
14/02:00am 20.3 SSW 6 8 1013.3 - 0.2 - Partly cloudy 10 - - - -
14/01:30am 20.8 WSW 8 10 1013.5 - 0.2 - Partly cloudy 10 - - - -
14/01:00am 21.0 WSW 20 24 1013.5 - 0.2 - Partly cloudy 10 - - - -
14/12:30am 21.8 SW 9 14 1013.8 - 0.2 - Partly cloudy 10 - - - -
14/12:00am 21.5 SW 10 16 1013.7 - 0.2 - Partly cloudy 10 - - - -
 
Date/Time
EST
Temp

°C
Wind Pressure Rain
since 9am
mm
Weather Cloud Vis
km
Sea
Height
m
Swell
Dir
 
Speed
knots
Gust
knots
hPa Trend Height
m
Period
s
Dir
13/11:30pm 22.1 SW 12 18 1013.6 - 0.2 - Cloudy 10 - - - -
13/11:00pm 22.2 SW 12 17 1013.4 - 0.2 - Partly cloudy 10 - - - -
13/10:30pm 22.2 SW 13 19 1013.3 - 0.2 - Partly cloudy 10 - - - -
13/10:00pm 22.3 SW 14 18 1013.4 - 0.2 - Partly cloudy 10 - - - -
13/09:30pm 22.4 SW 14 21 1013.3 - 0.2 - Partly cloudy 10 - - - -
13/09:00pm 21.8 SW 14 19 1013.4 - 0.2 - Partly cloudy 10 - - - -
13/08:45pm 21.0 SW 9 14 1013.4 - 0.2 - Partly cloudy 10 - - - -
13/08:32pm 21.0 SW 15 25 1013.3 - 0.2 - Partly cloudy 6 - - - -
13/08:30pm 21.3 SW 16 25 1013.4 - 0.2 - Cloudy 8 - - - -
13/08:00pm 22.2 WSW 14 21 1013.0 - 0.0 - Partly cloudy 10 - - - -
13/07:47pm 21.3 SW 10 15 1012.9 - 0.0 - Partly cloudy 10 - - - -
13/07:30pm 21.7 SW 11 21 1012.6 - 0.0 - Partly cloudy 10 - - - -
13/07:29pm 21.6 SW 10 18 1012.6 - 0.0 - Partly cloudy 10 - - - -
13/07:00pm 22.2 WSW 16 20 1012.5 - 0.0 - Partly cloudy 10 - - - -
13/06:30pm 22.2 WSW 17 21 1012.7 - 0.0 - Partly cloudy 10 - - - -
13/06:00pm 22.8 WSW 22 26 1012.2 - 0.0 - Partly cloudy 10 - - - -
13/05:30pm 22.7 W 22 26 1011.8 - 0.0 - Mostly clear 10 - - - -
13/05:00pm 22.8 W 22 26 1011.5 - 0.0 - Partly cloudy 10 - - - -
13/04:30pm 22.9 W 21 25 1010.6 - 0.0 - Partly cloudy 10 - - - -
13/04:00pm 22.9 WSW 21 27 1010.7 - 0.0 - Partly cloudy 10 - - - -
13/03:30pm 23.1 WSW 23 27 1010.5 - 0.0 - Partly cloudy 10 - - - -
13/03:00pm 23.3 W 20 25 1010.5 - 0.0 - Partly cloudy 10 - - - -
13/02:30pm 23.2 W 20 25 1010.6 R 0.0 Distant precip. Mostly cloudy 25 - - - -

Other Formats:

Comma delimited format used in spreadsheet applications
http://www.bom.gov.au/fwo/IDN60701/IDN60701.94995.axf

JavaScript Object Notation format (JSON) in row-major order
http://www.bom.gov.au/fwo/IDN60701/IDN60701.94995.json